createdAt,value
2022-11-15T00:00:31.381Z,294.70
2022-11-15T00:03:15.046Z,246.90
2022-11-15T00:05:50.172Z,242.30
2022-11-15T00:08:30.709Z,239.40
2022-11-15T00:11:04.411Z,169.40
2022-11-15T00:13:38.532Z,217.40
2022-11-15T00:16:12.692Z,196.80
2022-11-15T00:18:50.415Z,223.80
2022-11-15T00:21:22.401Z,202.50
2022-11-15T00:23:54.050Z,187.50
2022-11-15T00:26:27.704Z,196.60
2022-11-15T00:29:01.744Z,221.30
2022-11-15T00:31:33.431Z,177.00
2022-11-15T00:34:05.097Z,187.40
2022-11-15T00:36:45.043Z,168.90
2022-11-15T00:39:21.321Z,169.40
2022-11-15T00:41:53.926Z,174.70
2022-11-15T00:44:25.581Z,128.40
2022-11-15T00:46:58.472Z,131.40
2022-11-15T00:49:32.364Z,160.90
2022-11-15T00:52:09.099Z,111.80
2022-11-15T00:54:41.993Z,134.50
2022-11-15T00:57:15.092Z,134.00
2022-11-15T00:59:46.781Z,116.70
2022-11-15T01:02:22.266Z,115.40
2022-11-15T01:04:56.708Z,128.90
2022-11-15T01:07:28.373Z,136.50
2022-11-15T01:10:00.672Z,144.50
2022-11-15T01:12:33.246Z,112.50
2022-11-15T01:15:05.054Z,115.00
2022-11-15T01:17:38.471Z,110.70
2022-11-15T01:20:12.105Z,138.40
2022-11-15T01:22:46.534Z,122.80
2022-11-15T01:25:20.740Z,102.70
2022-11-15T01:27:57.420Z,118.60
2022-11-15T01:30:31.415Z,104.90
2022-11-15T01:33:06.893Z,99.70
2022-11-15T01:35:44.394Z,111.20
2022-11-15T01:38:16.093Z,124.00
2022-11-15T01:40:51.579Z,105.70
2022-11-15T01:43:26.577Z,117.70
2022-11-15T01:46:02.904Z,105.40
2022-11-15T01:48:36.630Z,149.70
2022-11-15T01:51:16.786Z,88.10
2022-11-15T01:53:53.223Z,114.00
2022-11-15T01:56:28.703Z,137.00
2022-11-15T01:59:03.878Z,127.00
2022-11-15T02:01:37.291Z,119.90
2022-11-15T02:04:14.429Z,113.80
2022-11-15T02:06:55.624Z,119.50
2022-11-15T02:09:32.584Z,91.70
2022-11-15T02:12:04.595Z,109.70
2022-11-15T02:14:38.280Z,89.60
2022-11-15T02:17:21.896Z,88.60
2022-11-15T02:20:34.539Z,88.60
2022-11-15T02:23:43.699Z,85.30
2022-11-15T02:26:56.043Z,86.60
2022-11-15T02:29:51.650Z,84.70
2022-11-15T02:32:34.612Z,77.60
2022-11-15T02:35:21.724Z,91.50
2022-11-15T02:38:00.245Z,96.00
2022-11-15T02:40:41.108Z,65.90
2022-11-15T02:43:34.996Z,67.50
2022-11-15T02:46:15.355Z,70.10
2022-11-15T02:48:47.685Z,67.80
2022-11-15T02:51:24.767Z,63.70
2022-11-15T02:53:56.584Z,64.90
2022-11-15T02:56:30.631Z,65.50
2022-11-15T02:59:16.053Z,78.40
2022-11-15T03:02:09.872Z,75.60
2022-11-15T03:04:53.421Z,64.70
2022-11-15T03:07:33.734Z,64.90
2022-11-15T03:10:19.838Z,66.10
2022-11-15T03:12:59.910Z,86.30
2022-11-15T03:15:35.483Z,60.10
2022-11-15T03:18:19.793Z,70.20
2022-11-15T03:20:58.254Z,61.40
2022-11-15T03:23:33.927Z,73.10
2022-11-15T03:26:16.090Z,65.50
2022-11-15T03:28:54.950Z,61.80
2022-11-15T03:31:51.503Z,70.00
2022-11-15T03:34:37.407Z,64.60
2022-11-15T03:37:11.701Z,62.10
2022-11-15T03:39:47.967Z,70.40
2022-11-15T03:42:27.086Z,60.60
2022-11-15T03:45:15.602Z,62.10
2022-11-15T03:47:53.104Z,63.80
2022-11-15T03:50:31.222Z,66.20
2022-11-15T03:53:03.207Z,65.20
2022-11-15T03:55:35.632Z,66.30
2022-11-15T03:58:11.683Z,67.00
2022-11-15T04:00:43.569Z,71.20
2022-11-15T04:03:15.239Z,66.10
2022-11-15T04:05:49.234Z,67.90
2022-11-15T04:08:21.700Z,71.80
2022-11-15T04:10:56.027Z,66.80
2022-11-15T04:13:29.922Z,64.80
2022-11-15T04:16:03.846Z,68.20
2022-11-15T04:18:36.604Z,68.10
2022-11-15T04:21:27.715Z,68.60
2022-11-15T04:24:15.371Z,72.10
2022-11-15T04:26:49.674Z,68.70
2022-11-15T04:29:37.640Z,73.80
2022-11-15T04:32:12.751Z,72.10
2022-11-15T04:34:44.853Z,63.90
2022-11-15T04:37:17.227Z,70.50
2022-11-15T04:39:49.009Z,72.80
2022-11-15T04:42:23.236Z,65.20
2022-11-15T04:44:57.769Z,64.20
2022-11-15T04:47:30.756Z,68.40
2022-11-15T04:50:10.714Z,79.80
2022-11-15T04:52:43.219Z,79.30
2022-11-15T04:55:15.858Z,85.40
2022-11-15T04:57:47.491Z,83.30
2022-11-15T05:00:22.210Z,79.10
2022-11-15T05:03:12.242Z,82.10
2022-11-15T05:05:43.994Z,80.20
2022-11-15T05:08:15.606Z,86.60
2022-11-15T05:10:47.287Z,89.40
2022-11-15T05:13:19.280Z,91.90
2022-11-15T05:15:51.187Z,85.70
2022-11-15T05:18:23.913Z,85.50
2022-11-15T05:20:55.734Z,85.50
2022-11-15T05:23:27.398Z,92.30
2022-11-15T05:26:07.866Z,96.00
2022-11-15T05:28:41.168Z,85.20
2022-11-15T05:31:14.468Z,80.30
2022-11-15T05:33:48.047Z,100.80
2022-11-15T05:36:23.966Z,114.30
2022-11-15T05:38:56.789Z,109.40
2022-11-15T05:41:35.921Z,97.90
2022-11-15T05:44:14.434Z,101.00
2022-11-15T05:46:54.590Z,115.50
2022-11-15T05:49:31.787Z,112.30
2022-11-15T05:52:05.167Z,88.40
2022-11-15T05:54:37.992Z,81.70
2022-11-15T05:57:10.052Z,93.90
2022-11-15T05:59:42.199Z,85.40
2022-11-15T06:02:14.188Z,83.30
2022-11-15T06:04:45.871Z,88.30
2022-11-15T06:07:17.629Z,77.90
2022-11-15T06:09:49.449Z,84.30
2022-11-15T06:12:21.109Z,80.30
2022-11-15T06:14:52.740Z,91.60
2022-11-15T06:17:24.398Z,83.00
2022-11-15T06:19:56.185Z,84.60
2022-11-15T06:22:27.903Z,88.60
2022-11-15T06:25:05.004Z,83.40
2022-11-15T06:27:37.397Z,81.70
2022-11-15T06:30:14.563Z,82.20
2022-11-15T06:32:46.285Z,89.70
2022-11-15T06:35:18.212Z,84.80
2022-11-15T06:37:50.003Z,89.20
2022-11-15T06:40:21.858Z,83.20
2022-11-15T06:43:00.699Z,76.00
2022-11-15T06:45:34.632Z,90.90
2022-11-15T06:48:07.056Z,126.80
2022-11-15T06:50:38.704Z,145.40
2022-11-15T06:53:10.413Z,178.50
2022-11-15T06:55:42.359Z,154.40
2022-11-15T06:58:14.127Z,241.70
2022-11-15T07:00:46.219Z,235.60
2022-11-15T07:03:18.040Z,193.60
2022-11-15T07:05:56.832Z,172.70
2022-11-15T07:08:30.860Z,152.80
2022-11-15T07:11:04.456Z,118.80
2022-11-15T07:13:43.402Z,81.90
2022-11-15T07:16:15.195Z,65.60
2022-11-15T07:18:46.900Z,60.50
2022-11-15T07:21:19.128Z,63.40
2022-11-15T07:23:53.437Z,67.80
2022-11-15T07:26:26.665Z,64.40
2022-11-15T07:28:58.464Z,78.60
2022-11-15T07:31:30.614Z,97.00
2022-11-15T07:34:03.493Z,94.40
2022-11-15T07:36:35.407Z,91.90
2022-11-15T07:39:07.792Z,83.20
2022-11-15T07:41:39.648Z,63.30
2022-11-15T07:44:11.748Z,58.90
2022-11-15T07:46:43.407Z,61.50
2022-11-15T07:49:15.232Z,57.60
2022-11-15T07:51:47.502Z,64.20
2022-11-15T07:54:19.371Z,74.80
2022-11-15T07:56:51.976Z,109.30
2022-11-15T07:59:23.708Z,133.00
2022-11-15T08:01:55.394Z,106.50
2022-11-15T08:04:27.494Z,97.10
2022-11-15T08:06:59.929Z,84.10
2022-11-15T08:09:32.285Z,79.70
2022-11-15T08:12:04.338Z,74.10
2022-11-15T08:14:36.715Z,74.70
2022-11-15T08:17:08.847Z,76.20
2022-11-15T08:19:40.764Z,69.50
2022-11-15T08:22:12.373Z,71.70
2022-11-15T08:24:44.066Z,59.80
2022-11-15T08:27:16.937Z,62.20
2022-11-15T08:29:49.611Z,65.10
2022-11-15T08:32:21.336Z,62.50
2022-11-15T08:34:53.018Z,74.70
2022-11-15T08:37:24.752Z,63.00
2022-11-15T08:39:56.441Z,63.60
2022-11-15T08:42:28.230Z,94.60
2022-11-15T08:44:59.948Z,77.90
2022-11-15T08:47:32.273Z,71.20
2022-11-15T08:50:04.453Z,71.40
2022-11-15T08:52:42.349Z,73.80
2022-11-15T08:55:16.835Z,65.80
2022-11-15T08:57:49.443Z,66.20
2022-11-15T09:00:25.515Z,67.70
2022-11-15T09:02:57.280Z,59.20
2022-11-15T09:05:29.726Z,67.30
2022-11-15T09:08:18.799Z,59.90
2022-11-15T09:10:54.206Z,57.40
2022-11-15T09:13:26.260Z,57.20
2022-11-15T09:16:01.236Z,60.40
2022-11-15T09:18:48.089Z,57.70
2022-11-15T09:21:25.716Z,64.80
2022-11-15T09:23:58.627Z,68.60
2022-11-15T09:26:30.365Z,64.10
2022-11-15T09:29:02.435Z,59.40
2022-11-15T09:31:34.567Z,56.30
2022-11-15T09:34:06.293Z,51.40
2022-11-15T09:36:38.054Z,53.50
2022-11-15T09:39:10.487Z,55.40
2022-11-15T09:42:07.243Z,57.90
2022-11-15T09:44:54.451Z,56.70
2022-11-15T09:47:57.015Z,58.30
2022-11-15T09:50:39.083Z,59.30
2022-11-15T09:53:16.272Z,55.10
2022-11-15T09:55:58.889Z,51.40
2022-11-15T09:58:39.932Z,53.90
2022-11-15T10:01:19.332Z,56.00
2022-11-15T10:03:51.131Z,49.80
2022-11-15T10:06:27.351Z,51.40
2022-11-15T10:09:04.165Z,49.30
2022-11-15T10:11:39.160Z,52.90
2022-11-15T10:14:17.351Z,52.00
2022-11-15T10:17:11.899Z,53.00
2022-11-15T10:19:54.858Z,52.70
2022-11-15T10:22:32.560Z,52.30
2022-11-15T10:25:20.650Z,50.10
2022-11-15T10:27:57.594Z,50.00
2022-11-15T10:30:35.338Z,52.60
2022-11-15T10:33:19.918Z,46.80
2022-11-15T10:36:11.681Z,49.70
2022-11-15T10:38:55.536Z,59.30
2022-11-15T10:41:37.480Z,58.30
2022-11-15T10:44:32.410Z,56.40
2022-11-15T10:47:38.866Z,53.10
2022-11-15T10:50:32.892Z,53.80
2022-11-15T10:53:05.230Z,48.40
2022-11-15T10:55:37.645Z,53.60
2022-11-15T10:58:27.015Z,51.10
2022-11-15T11:01:10.624Z,50.10
2022-11-15T11:03:43.496Z,50.40
2022-11-15T11:06:17.318Z,49.20
2022-11-15T11:09:00.179Z,51.10
2022-11-15T11:11:49.391Z,54.50
2022-11-15T11:14:26.911Z,50.00
2022-11-15T11:17:06.007Z,57.30
2022-11-15T11:20:02.780Z,49.40
2022-11-15T11:22:41.974Z,48.20
2022-11-15T11:25:26.146Z,47.10
2022-11-15T11:28:16.988Z,55.20
2022-11-15T11:30:59.337Z,56.60
2022-11-15T11:33:35.819Z,54.00
2022-11-15T11:36:19.469Z,51.70
2022-11-15T11:39:02.566Z,56.00
2022-11-15T11:42:04.805Z,50.40
2022-11-15T11:44:45.885Z,53.00
2022-11-15T11:49:58.638Z,56.20
2022-11-15T11:52:36.781Z,53.90
2022-11-15T11:55:17.947Z,63.20
2022-11-15T11:57:58.606Z,66.60
2022-11-15T12:00:34.611Z,64.30
2022-11-15T12:03:14.340Z,67.10
2022-11-15T12:05:51.177Z,56.30
2022-11-15T12:08:34.358Z,62.00
2022-11-15T12:11:15.938Z,60.80
2022-11-15T12:13:50.767Z,55.50
2022-11-15T12:16:28.583Z,54.40
2022-11-15T12:19:04.163Z,54.10
2022-11-15T12:21:44.135Z,53.50
2022-11-15T12:24:21.710Z,57.90
2022-11-15T12:26:59.401Z,48.80
2022-11-15T12:29:35.731Z,48.00
2022-11-15T12:32:33.953Z,51.00
2022-11-15T12:35:21.917Z,54.70
2022-11-15T12:37:57.240Z,49.50
2022-11-15T12:40:38.542Z,57.40
2022-11-15T12:43:41.996Z,50.90
2022-11-15T12:46:24.665Z,56.60
2022-11-15T12:49:01.736Z,58.20
2022-11-15T12:52:08.083Z,55.60
2022-11-15T12:55:33.630Z,52.70
2022-11-15T12:58:31.450Z,53.90
2022-11-15T13:01:34.328Z,51.10
2022-11-15T13:04:28.929Z,46.30
2022-11-15T13:07:04.135Z,48.10
2022-11-15T13:09:57.126Z,53.90
2022-11-15T13:12:53.212Z,54.00
2022-11-15T13:15:47.948Z,60.30
2022-11-15T13:18:41.699Z,55.40
2022-11-15T13:21:43.167Z,62.10
2022-11-15T13:24:21.045Z,60.80
2022-11-15T13:26:53.080Z,61.20
2022-11-15T13:29:25.026Z,60.00
2022-11-15T13:31:56.799Z,58.40
2022-11-15T13:34:51.147Z,60.10
2022-11-15T13:37:34.653Z,69.70
2022-11-15T13:40:25.297Z,87.80
2022-11-15T13:43:04.397Z,82.90
2022-11-15T13:45:37.111Z,79.10
2022-11-15T13:48:12.388Z,77.30
2022-11-15T13:50:44.300Z,83.30
2022-11-15T13:53:16.165Z,85.30
2022-11-15T13:55:47.962Z,86.00
2022-11-15T13:58:24.150Z,82.40
2022-11-15T14:01:05.258Z,83.40
2022-11-15T14:03:48.870Z,83.40
2022-11-15T14:06:23.482Z,89.20
2022-11-15T14:09:33.903Z,98.20
2022-11-15T14:12:26.496Z,101.70
2022-11-15T14:14:58.386Z,119.20
2022-11-15T14:17:45.773Z,141.00
2022-11-15T14:20:35.693Z,135.80
2022-11-15T14:23:20.845Z,129.70
2022-11-15T14:25:58.596Z,129.50
2022-11-15T14:28:38.417Z,137.70
2022-11-15T14:31:15.350Z,123.50
2022-11-15T14:33:46.986Z,135.00
2022-11-15T14:36:20.771Z,128.00
2022-11-15T14:38:52.617Z,135.30
2022-11-15T14:41:27.480Z,125.20
2022-11-15T14:43:59.147Z,135.30
2022-11-15T14:46:30.843Z,144.80
2022-11-15T14:49:02.477Z,137.10
2022-11-15T14:51:35.118Z,134.20
2022-11-15T14:54:07.118Z,150.90
2022-11-15T14:56:38.872Z,170.50
2022-11-15T14:59:10.463Z,138.20
2022-11-15T15:01:42.275Z,157.90
2022-11-15T15:04:14.384Z,169.60
2022-11-15T15:06:46.238Z,144.80
2022-11-15T15:09:17.935Z,165.90
2022-11-15T15:11:49.761Z,143.60
2022-11-15T15:14:21.479Z,181.30
2022-11-15T15:16:53.113Z,154.30
2022-11-15T15:19:26.290Z,152.10
2022-11-15T15:21:58.036Z,141.50
2022-11-15T15:24:29.842Z,169.80
2022-11-15T15:27:01.682Z,163.00
2022-11-15T15:29:33.331Z,149.60
2022-11-15T15:32:05.131Z,149.80
2022-11-15T15:34:36.780Z,146.60
2022-11-15T15:37:21.302Z,119.80
2022-11-15T15:39:53.146Z,126.00
2022-11-15T15:42:25.431Z,141.20
2022-11-15T15:44:57.191Z,146.40
2022-11-15T15:47:29.304Z,118.50
2022-11-15T15:50:01.145Z,112.90
2022-11-15T15:52:32.814Z,111.50
2022-11-15T15:55:04.538Z,123.70
2022-11-15T15:57:38.238Z,151.30
2022-11-15T16:00:12.989Z,135.40
2022-11-15T16:02:45.155Z,112.20
2022-11-15T16:05:18.408Z,108.10
2022-11-15T16:07:51.744Z,151.60
2022-11-15T16:10:28.936Z,139.60
2022-11-15T16:13:01.090Z,140.70
2022-11-15T16:15:34.330Z,137.60
2022-11-15T16:18:09.136Z,119.10
2022-11-15T16:20:43.634Z,163.30
2022-11-15T16:23:17.185Z,140.90
2022-11-15T16:25:51.522Z,144.60
2022-11-15T16:28:25.738Z,139.30
2022-11-15T16:31:05.983Z,141.70
2022-11-15T16:33:37.685Z,165.30
2022-11-15T16:36:16.976Z,150.30
2022-11-15T16:38:48.809Z,117.30
2022-11-15T16:41:20.875Z,122.00
2022-11-15T16:43:52.926Z,127.90
2022-11-15T16:46:26.302Z,130.60
2022-11-15T16:48:58.268Z,124.10
2022-11-15T16:51:30.011Z,120.50
2022-11-15T16:54:01.804Z,135.90
2022-11-15T16:56:33.862Z,142.10
2022-11-15T16:59:05.886Z,134.20
2022-11-15T17:01:46.985Z,153.60
2022-11-15T17:09:24.757Z,117.80
2022-11-15T17:11:56.857Z,120.90
2022-11-15T17:14:29.936Z,105.50
2022-11-15T17:17:02.703Z,112.30
2022-11-15T17:19:34.805Z,128.30
2022-11-15T17:22:06.523Z,115.60
2022-11-15T17:24:38.322Z,123.80
2022-11-15T17:27:10.107Z,120.70
2022-11-15T17:29:45.166Z,85.30
2022-11-15T17:32:16.908Z,112.30
2022-11-15T17:34:49.223Z,106.00
2022-11-15T17:37:20.911Z,107.70
2022-11-15T17:39:52.586Z,113.30
2022-11-15T17:42:24.248Z,100.80
2022-11-15T17:44:56.004Z,129.10
2022-11-15T17:47:27.714Z,113.60
2022-11-15T17:49:59.508Z,124.20
2022-11-15T17:52:31.155Z,123.50
2022-11-15T17:55:02.910Z,122.20
2022-11-15T17:57:34.631Z,127.70
2022-11-15T18:00:11.068Z,160.40
2022-11-15T18:02:42.732Z,155.30
2022-11-15T18:05:14.528Z,124.40
2022-11-15T18:07:46.209Z,128.90
2022-11-15T18:10:23.172Z,120.60
2022-11-15T18:12:55.831Z,125.30
2022-11-15T18:15:27.792Z,126.60
2022-11-15T18:18:00.953Z,112.30
2022-11-15T18:20:33.429Z,127.10
2022-11-15T18:23:07.212Z,122.80
2022-11-15T18:25:38.940Z,158.60
2022-11-15T18:28:10.649Z,145.20
2022-11-15T18:30:44.700Z,135.90
2022-11-15T18:33:16.452Z,132.10
2022-11-15T18:35:48.638Z,117.80
2022-11-15T18:38:20.323Z,125.50
2022-11-15T18:40:52.003Z,124.10
2022-11-15T18:43:23.651Z,145.60
2022-11-15T18:45:55.384Z,140.60
2022-11-15T18:48:30.021Z,130.90
2022-11-15T18:51:05.748Z,148.90
2022-11-15T18:53:38.397Z,114.30
2022-11-15T18:56:12.114Z,119.80
2022-11-15T18:58:48.690Z,131.80
2022-11-15T19:01:32.171Z,114.60
2022-11-15T19:04:23.939Z,157.70
2022-11-15T19:06:55.681Z,126.40
2022-11-15T19:09:32.832Z,174.20
2022-11-15T19:12:05.336Z,104.60
2022-11-15T19:14:38.180Z,128.80
2022-11-15T19:17:10.111Z,104.70
2022-11-15T19:19:41.815Z,96.10
2022-11-15T19:22:13.494Z,133.90
2022-11-15T19:24:50.284Z,121.60
2022-11-15T19:27:23.345Z,96.60
2022-11-15T19:29:55.143Z,111.50
2022-11-15T19:32:27.962Z,124.30
2022-11-15T19:34:59.674Z,101.30
2022-11-15T19:37:45.499Z,108.10
2022-11-15T19:40:40.583Z,114.70
2022-11-15T19:43:44.383Z,82.90
2022-11-15T19:46:45.529Z,88.90
2022-11-15T19:49:53.889Z,97.50
2022-11-15T19:52:38.224Z,99.70
2022-11-15T19:55:11.273Z,109.70
2022-11-15T19:57:42.879Z,97.70
2022-11-15T20:00:15.873Z,94.30
2022-11-15T20:02:47.850Z,87.80
2022-11-15T20:05:24.684Z,94.50
2022-11-15T20:08:04.871Z,96.80
2022-11-15T20:10:48.810Z,93.00
2022-11-15T20:13:24.015Z,82.10
2022-11-15T20:16:02.436Z,93.00
2022-11-15T20:18:37.045Z,76.40
2022-11-15T20:21:15.085Z,86.80
2022-11-15T20:23:53.116Z,88.40
2022-11-15T20:26:26.923Z,84.70
2022-11-15T20:29:01.334Z,76.60
2022-11-15T20:31:47.910Z,80.20
2022-11-15T20:34:22.564Z,77.50
2022-11-15T20:36:57.532Z,79.20
2022-11-15T20:39:32.566Z,84.40
2022-11-15T20:42:04.532Z,92.30
2022-11-15T20:44:36.205Z,83.50
2022-11-15T20:47:10.502Z,82.60
2022-11-15T20:49:46.075Z,95.40
2022-11-15T20:52:20.954Z,84.60
2022-11-15T20:54:52.697Z,88.40
2022-11-15T20:57:24.460Z,95.30
2022-11-15T20:59:56.534Z,98.70
2022-11-15T21:02:29.155Z,92.40
2022-11-15T21:05:01.355Z,109.10
2022-11-15T21:07:33.077Z,104.80
2022-11-15T21:10:29.123Z,103.50
2022-11-15T21:13:03.223Z,102.50
2022-11-15T21:15:36.961Z,112.60
2022-11-15T21:18:09.203Z,121.80
2022-11-15T21:20:40.839Z,116.40
2022-11-15T21:23:13.058Z,113.60
2022-11-15T21:25:52.775Z,125.70
2022-11-15T21:28:24.656Z,120.40
2022-11-15T21:30:58.303Z,134.90
2022-11-15T21:33:38.194Z,120.60
2022-11-15T21:36:13.743Z,118.30
2022-11-15T21:38:48.857Z,110.60
2022-11-15T21:41:22.060Z,119.10
2022-11-15T21:43:53.807Z,123.80
2022-11-15T21:46:25.959Z,119.50
2022-11-15T21:48:58.292Z,131.80
2022-11-15T21:51:31.461Z,132.10
2022-11-15T21:54:07.024Z,127.20
2022-11-15T21:56:38.730Z,146.50
2022-11-15T21:59:10.498Z,139.10
2022-11-15T22:01:59.688Z,144.50
2022-11-15T22:04:32.769Z,150.30
2022-11-15T22:07:07.720Z,149.70
2022-11-15T22:09:40.477Z,137.40
2022-11-15T22:12:14.769Z,159.10
2022-11-15T22:14:46.713Z,151.90
2022-11-15T22:17:18.645Z,144.00
2022-11-15T22:19:53.708Z,139.50
2022-11-15T22:22:25.623Z,143.20
2022-11-15T22:24:57.823Z,147.50
2022-11-15T22:27:29.672Z,150.90
2022-11-15T22:30:10.851Z,144.90
2022-11-15T22:32:44.327Z,145.40
2022-11-15T22:35:17.805Z,153.60
2022-11-15T22:37:49.614Z,136.00
2022-11-15T22:40:27.768Z,129.90
2022-11-15T22:42:59.813Z,129.70
2022-11-15T22:45:31.744Z,131.20
2022-11-15T22:48:06.611Z,137.30
2022-11-15T22:50:38.414Z,129.90
2022-11-15T22:53:12.818Z,127.50
2022-11-15T22:55:44.998Z,122.70
2022-11-15T22:58:19.566Z,124.70
2022-11-15T23:00:56.261Z,124.00
2022-11-15T23:03:32.521Z,133.80
2022-11-15T23:06:11.816Z,127.10
2022-11-15T23:08:43.676Z,136.10
2022-11-15T23:11:33.347Z,132.50
2022-11-15T23:14:06.420Z,127.50
2022-11-15T23:16:39.845Z,116.60
2022-11-15T23:19:13.466Z,127.20
2022-11-15T23:22:04.623Z,132.30
2022-11-15T23:24:36.662Z,124.20
2022-11-15T23:27:09.542Z,132.50
2022-11-15T23:29:55.193Z,132.30
2022-11-15T23:32:46.051Z,132.10
2022-11-15T23:35:18.014Z,129.90
2022-11-15T23:37:49.807Z,139.10
2022-11-15T23:40:29.350Z,129.30
2022-11-15T23:43:01.800Z,126.30
2022-11-15T23:45:38.762Z,142.40
2022-11-15T23:48:10.758Z,142.00
2022-11-15T23:50:42.542Z,145.60
2022-11-15T23:53:14.358Z,142.20
2022-11-15T23:55:54.686Z,137.60
2022-11-15T23:58:28.777Z,137.80
